OBBIOKBK

Guest
Details From OBBI - Bahrain Intl
To OKBK - Kuwait Intl
Flight Number -
Tags Generated
Created
Modified
Stats Distance 228 nm / 422 km
Max Altitude 0 ft / 0 m
Waypoints 3
Social Downloads 5
Likes 0
Share VATSIM

Download

Looking for another format? Having issues loading an existing format? Contact us
Advertisement - Login to hide

Notes

Generated

Route

OBBI KUA13 OKBK

ID Type Via Altitude Latitude Longitude Leg Dist Tot Dist Heading (true) Name
O OBBI APT - 0 ft / 0 m 26.27100˚ 50.62993˚ - 0 nm - -
KUA13 FIX - 0 ft / 0 m 29.11733˚ 48.07868˚ 218 nm 218 nm 322° / 321° -
O OKBK APT - 0 ft / 0 m 29.24047˚ 47.96154˚ 9 nm 227 nm 320° / 320° -

Altitude Profile

Advertisement - Login to hide

Weather


0- 5 10 15 20 25 30 35+ Temperature / ° C

Clouds and Precipitation
Forecast for 2018-05-23 06:00 UTC. Updated 39 minutes ago

Ground ~20,000 ft ~40,000 ft Winds

OBBI

Details ICAO OBBI (BAH)
Name BAHRAIN INTL
Region Bahrain
Timezone Asia/Bahrain (UTC+3.0)
Stats Elevation 6 ft / 2 m (AMSL)
Location 26.267837° 50.637095°
Runways 2
Magnetic Variation 2.783° E

METAR

OBBI 230330Z 31006KT CAVOK 30/22 Q1009 NOSIG

Decode

TAF

TAF OBBI 222300Z 2300/2406 VRB05KT CAVOK= TAF OKBK 222245Z 2300/2406 VRB03KT 7000 SKC TEMPO 2304/2312 34010KT

Decode

Departure Runways

ID Width Length Bearing (true) Bearing (mag) Surface Threshold Offset Overrun Length
12L 197 ft / 60 m 12,893 ft / 3,930 m 122.74° 119.96° Asphalt 1,000 ft / 305 m 0 ft / 0 m
12R 148 ft / 45 m 8,303 ft / 2,531 m 122.76° 119.98° Asphalt 1,000 ft / 305 m 0 ft / 0 m
30L 148 ft / 45 m 8,303 ft / 2,531 m 302.77° 299.99° Asphalt 395 ft / 120 m 0 ft / 0 m
30R 197 ft / 60 m 12,893 ft / 3,930 m 302.75° 299.97° Asphalt 1,000 ft / 305 m 0 ft / 0 m

OKBK

Details ICAO OKBK (KWI)
Name KUWAIT INTL
Region Kuwait
Timezone Asia/Kuwait (UTC+3.0)
Stats Elevation 206 ft / 63 m (AMSL)
Location 29.226716° 47.979968°
Runways 2
Magnetic Variation 3.597° E

METAR

OKBK 230300Z 17007KT 7000 FEW025 SCT100 25/14 Q1009 NOSIG

Decode

TAF

TAF TAF OKBK 221645Z 2218/2324 13012KT 7000 NSC BECMG 2221/2223 VRB03KT

Decode

Destination Runways

ID Width Length Bearing (true) Bearing (mag) Surface Threshold Offset Overrun Length
15L 148 ft / 45 m 11,515 ft / 3,510 m 155.13° 151.53° Asphalt 0 ft / 0 m 394 ft / 120 m
15R 148 ft / 45 m 11,188 ft / 3,410 m 155.12° 151.52° Concrete 0 ft / 0 m 197 ft / 60 m
33L 148 ft / 45 m 11,188 ft / 3,410 m 335.13° 331.53° Concrete 0 ft / 0 m 197 ft / 60 m
33R 148 ft / 45 m 11,515 ft / 3,510 m 335.14° 331.54° Asphalt 0 ft / 0 m 394 ft / 120 m

Approach Navaids

Runway Type Ident Frequency Range Bearing (true) Bearing (mag) Slope Elevation
15L Localiser IKIC 110.10 MHz 18 nm / 33 km 155.14° 151.54° - 222 ft / 68 m (AMSL)
15L Glidescope IKIC 110.10 MHz 10 nm / 19 km 155.13° 151.54° 3.00° 208 ft / 63 m (AMSL)
15L DME IKIC 110.10 MHz 18 nm / 33 km - - - 208 ft / 63 m (AMSL)
15R Localiser IKIB 111.30 MHz 18 nm / 33 km 155.12° 151.53° - 180 ft / 55 m (AMSL)
15R Glidescope IKIB 111.30 MHz 10 nm / 19 km 155.12° 151.53° 3.00° 196 ft / 60 m (AMSL)
15R DME IKIB 111.30 MHz 18 nm / 33 km - - - 196 ft / 60 m (AMSL)
33L Localiser IKIA 109.50 MHz 18 nm / 33 km 335.12° 331.53° - 148 ft / 45 m (AMSL)
33L Glidescope IKIA 109.50 MHz 10 nm / 19 km 335.12° 331.53° 3.00° 201 ft / 61 m (AMSL)
33L DME IKIA 109.50 MHz 18 nm / 33 km - - - 201 ft / 61 m (AMSL)
33R Localiser IKID 110.50 MHz 18 nm / 33 km 335.13° 331.54° - 172 ft / 52 m (AMSL)
33R Glidescope IKID 110.50 MHz 10 nm / 19 km 335.13° 331.54° 3.00° 235 ft / 72 m (AMSL)
33R DME IKID 110.50 MHz 18 nm / 33 km - - - 235 ft / 72 m (AMSL)

Popular Alternatives